sensor_id;sensor_type;location;lat;lon;timestamp;P1;durP1;ratioP1;P2;durP2;ratioP2
22786;SDS011;63134;52.020;4.714;2022-09-12T00:01:45;35.50;;;28.48;;
22786;SDS011;63134;52.020;4.714;2022-09-12T00:04:30;36.83;;;29.48;;
22786;SDS011;63134;52.020;4.714;2022-09-12T00:07:18;32.95;;;28.25;;
22786;SDS011;63134;52.020;4.714;2022-09-12T00:10:03;33.53;;;27.92;;
22786;SDS011;63134;52.020;4.714;2022-09-12T00:12:49;38.83;;;28.92;;
22786;SDS011;63134;52.020;4.714;2022-09-12T00:15:39;33.47;;;28.02;;
22786;SDS011;63134;52.020;4.714;2022-09-12T00:18:26;31.60;;;27.13;;
22786;SDS011;63134;52.020;4.714;2022-09-12T00:21:12;34.08;;;27.23;;
22786;SDS011;63134;52.020;4.714;2022-09-12T00:23:59;33.15;;;26.83;;
22786;SDS011;63134;52.020;4.714;2022-09-12T00:26:47;30.27;;;25.90;;
22786;SDS011;63134;52.020;4.714;2022-09-12T00:29:33;36.95;;;27.13;;
22786;SDS011;63134;52.020;4.714;2022-09-12T00:32:19;30.75;;;25.80;;
22786;SDS011;63134;52.020;4.714;2022-09-12T00:35:04;31.48;;;26.67;;
22786;SDS011;63134;52.020;4.714;2022-09-12T00:37:50;29.67;;;25.63;;
22786;SDS011;63134;52.020;4.714;2022-09-12T00:40:36;33.92;;;25.95;;
22786;SDS011;63134;52.020;4.714;2022-09-12T00:46:29;34.08;;;26.92;;
22786;SDS011;63134;52.020;4.714;2022-09-12T00:49:23;32.28;;;27.23;;
22786;SDS011;63134;52.020;4.714;2022-09-12T00:52:17;34.97;;;28.45;;
22786;SDS011;63134;52.020;4.714;2022-09-12T00:55:20;37.17;;;28.50;;
22786;SDS011;63134;52.020;4.714;2022-09-12T00:58:16;35.30;;;26.70;;
22786;SDS011;63134;52.020;4.714;2022-09-12T01:03:50;35.03;;;27.52;;
22786;SDS011;63134;52.020;4.714;2022-09-12T01:06:37;33.05;;;26.60;;
22786;SDS011;63134;52.020;4.714;2022-09-12T01:09:26;33.40;;;25.73;;
22786;SDS011;63134;52.020;4.714;2022-09-12T01:12:12;30.13;;;26.00;;
22786;SDS011;63134;52.020;4.714;2022-09-12T01:14:59;34.25;;;28.50;;
22786;SDS011;63134;52.020;4.714;2022-09-12T01:24:41;34.53;;;26.83;;
22786;SDS011;63134;52.020;4.714;2022-09-12T01:39:28;38.13;;;29.08;;
22786;SDS011;63134;52.020;4.714;2022-09-12T01:42:30;35.28;;;28.83;;
22786;SDS011;63134;52.020;4.714;2022-09-12T01:45:28;37.83;;;28.65;;
22786;SDS011;63134;52.020;4.714;2022-09-12T01:48:23;39.70;;;28.70;;
22786;SDS011;63134;52.020;4.714;2022-09-12T01:51:22;36.42;;;29.52;;
22786;SDS011;63134;52.020;4.714;2022-09-12T01:54:21;36.00;;;27.73;;
22786;SDS011;63134;52.020;4.714;2022-09-12T01:57:13;36.35;;;28.52;;
22786;SDS011;63134;52.020;4.714;2022-09-12T02:00:10;37.10;;;28.42;;
22786;SDS011;63134;52.020;4.714;2022-09-12T02:03:16;38.00;;;29.08;;
22786;SDS011;63134;52.020;4.714;2022-09-12T02:06:11;41.17;;;30.52;;
22786;SDS011;63134;52.020;4.714;2022-09-12T02:09:04;44.00;;;30.35;;
22786;SDS011;63134;52.020;4.714;2022-09-12T02:11:56;47.10;;;31.55;;
22786;SDS011;63134;52.020;4.714;2022-09-12T02:14:48;44.10;;;33.25;;
22786;SDS011;63134;52.020;4.714;2022-09-12T02:17:41;47.42;;;32.13;;
22786;SDS011;63134;52.020;4.714;2022-09-12T02:20:35;42.70;;;31.52;;
22786;SDS011;63134;52.020;4.714;2022-09-12T02:23:32;43.50;;;32.75;;
22786;SDS011;63134;52.020;4.714;2022-09-12T02:26:23;40.92;;;31.67;;
22786;SDS011;63134;52.020;4.714;2022-09-12T02:29:15;39.80;;;30.70;;
22786;SDS011;63134;52.020;4.714;2022-09-12T02:32:05;43.65;;;31.20;;
22786;SDS011;63134;52.020;4.714;2022-09-12T02:35:16;44.78;;;32.00;;
22786;SDS011;63134;52.020;4.714;2022-09-12T02:38:12;43.65;;;31.25;;
22786;SDS011;63134;52.020;4.714;2022-09-12T02:41:07;40.13;;;30.98;;
22786;SDS011;63134;52.020;4.714;2022-09-12T02:43:53;45.50;;;30.48;;
22786;SDS011;63134;52.020;4.714;2022-09-12T02:46:40;44.45;;;31.75;;
22786;SDS011;63134;52.020;4.714;2022-09-12T02:49:29;41.22;;;31.90;;
22786;SDS011;63134;52.020;4.714;2022-09-12T02:52:15;42.88;;;31.92;;
22786;SDS011;63134;52.020;4.714;2022-09-12T02:55:00;46.55;;;32.70;;
22786;SDS011;63134;52.020;4.714;2022-09-12T02:57:48;48.28;;;33.30;;
22786;SDS011;63134;52.020;4.714;2022-09-12T03:00:50;47.70;;;33.97;;
22786;SDS011;63134;52.020;4.714;2022-09-12T03:06:57;50.03;;;33.25;;
22786;SDS011;63134;52.020;4.714;2022-09-12T03:10:09;47.58;;;33.60;;
22786;SDS011;63134;52.020;4.714;2022-09-12T03:13:14;42.03;;;32.58;;
22786;SDS011;63134;52.020;4.714;2022-09-12T03:23:13;46.00;;;32.63;;
22786;SDS011;63134;52.020;4.714;2022-09-12T03:25:44;46.05;;;32.55;;
22786;SDS011;63134;52.020;4.714;2022-09-12T03:28:36;44.67;;;34.08;;
22786;SDS011;63134;52.020;4.714;2022-09-12T03:31:24;44.30;;;32.45;;
22786;SDS011;63134;52.020;4.714;2022-09-12T03:34:10;42.25;;;32.08;;
22786;SDS011;63134;52.020;4.714;2022-09-12T03:36:56;41.28;;;31.45;;
22786;SDS011;63134;52.020;4.714;2022-09-12T03:39:42;41.67;;;32.00;;
22786;SDS011;63134;52.020;4.714;2022-09-12T03:42:27;40.75;;;32.00;;
22786;SDS011;63134;52.020;4.714;2022-09-12T03:45:13;43.10;;;31.15;;
22786;SDS011;63134;52.020;4.714;2022-09-12T03:48:00;41.47;;;32.20;;
22786;SDS011;63134;52.020;4.714;2022-09-12T03:50:45;46.67;;;31.05;;
22786;SDS011;63134;52.020;4.714;2022-09-12T03:53:30;42.00;;;31.30;;
22786;SDS011;63134;52.020;4.714;2022-09-12T03:56:16;44.63;;;32.38;;
22786;SDS011;63134;52.020;4.714;2022-09-12T03:59:04;44.83;;;32.25;;
22786;SDS011;63134;52.020;4.714;2022-09-12T04:01:50;43.63;;;32.03;;
22786;SDS011;63134;52.020;4.714;2022-09-12T04:04:36;41.50;;;32.90;;
22786;SDS011;63134;52.020;4.714;2022-09-12T04:07:21;47.22;;;32.42;;
22786;SDS011;63134;52.020;4.714;2022-09-12T04:10:07;47.13;;;32.00;;
22786;SDS011;63134;52.020;4.714;2022-09-12T04:12:56;44.25;;;32.55;;
22786;SDS011;63134;52.020;4.714;2022-09-12T04:15:42;47.40;;;33.35;;
22786;SDS011;63134;52.020;4.714;2022-09-12T04:18:27;47.13;;;33.63;;
22786;SDS011;63134;52.020;4.714;2022-09-12T04:21:14;50.17;;;32.05;;
22786;SDS011;63134;52.020;4.714;2022-09-12T04:24:01;48.38;;;33.83;;
22786;SDS011;63134;52.020;4.714;2022-09-12T04:26:46;53.75;;;36.33;;
22786;SDS011;63134;52.020;4.714;2022-09-12T04:29:32;52.90;;;35.70;;
22786;SDS011;63134;52.020;4.714;2022-09-12T04:32:18;50.30;;;34.50;;
22786;SDS011;63134;52.020;4.714;2022-09-12T04:35:03;51.47;;;35.33;;
22786;SDS011;63134;52.020;4.714;2022-09-12T04:37:49;57.50;;;36.10;;
22786;SDS011;63134;52.020;4.714;2022-09-12T04:40:35;55.55;;;36.20;;
22786;SDS011;63134;52.020;4.714;2022-09-12T04:43:20;58.35;;;36.05;;
22786;SDS011;63134;52.020;4.714;2022-09-12T04:46:09;59.42;;;37.08;;
22786;SDS011;63134;52.020;4.714;2022-09-12T04:48:55;58.17;;;37.03;;
22786;SDS011;63134;52.020;4.714;2022-09-12T04:51:41;60.35;;;39.13;;
22786;SDS011;63134;52.020;4.714;2022-09-12T04:54:31;58.35;;;37.55;;
22786;SDS011;63134;52.020;4.714;2022-09-12T04:57:17;63.45;;;38.85;;
22786;SDS011;63134;52.020;4.714;2022-09-12T05:00:03;59.70;;;38.75;;
22786;SDS011;63134;52.020;4.714;2022-09-12T05:02:51;58.33;;;38.22;;
22786;SDS011;63134;52.020;4.714;2022-09-12T05:05:36;60.35;;;38.53;;
22786;SDS011;63134;52.020;4.714;2022-09-12T05:08:22;56.33;;;36.38;;
22786;SDS011;63134;52.020;4.714;2022-09-12T05:11:10;64.03;;;41.17;;
22786;SDS011;63134;52.020;4.714;2022-09-12T05:13:59;65.25;;;38.42;;
22786;SDS011;63134;52.020;4.714;2022-09-12T05:16:44;65.60;;;39.88;;
22786;SDS011;63134;52.020;4.714;2022-09-12T05:19:33;56.40;;;37.70;;
22786;SDS011;63134;52.020;4.714;2022-09-12T05:22:19;60.63;;;37.50;;
22786;SDS011;63134;52.020;4.714;2022-09-12T05:25:04;64.97;;;38.25;;
22786;SDS011;63134;52.020;4.714;2022-09-12T05:27:53;64.93;;;39.72;;
22786;SDS011;63134;52.020;4.714;2022-09-12T05:30:39;67.40;;;42.17;;
22786;SDS011;63134;52.020;4.714;2022-09-12T05:33:24;75.30;;;42.42;;
22786;SDS011;63134;52.020;4.714;2022-09-12T05:36:17;69.85;;;42.35;;
22786;SDS011;63134;52.020;4.714;2022-09-12T05:39:04;68.05;;;41.83;;
22786;SDS011;63134;52.020;4.714;2022-09-12T05:41:50;70.85;;;43.00;;
22786;SDS011;63134;52.020;4.714;2022-09-12T05:44:36;67.90;;;42.30;;
22786;SDS011;63134;52.020;4.714;2022-09-12T05:47:24;62.53;;;41.55;;
22786;SDS011;63134;52.020;4.714;2022-09-12T05:50:09;71.63;;;43.08;;
22786;SDS011;63134;52.020;4.714;2022-09-12T05:52:56;66.60;;;41.20;;
22786;SDS011;63134;52.020;4.714;2022-09-12T05:55:41;65.78;;;40.25;;
22786;SDS011;63134;52.020;4.714;2022-09-12T05:58:27;66.90;;;41.40;;
22786;SDS011;63134;52.020;4.714;2022-09-12T06:01:14;66.20;;;41.03;;
22786;SDS011;63134;52.020;4.714;2022-09-12T06:04:01;62.30;;;41.20;;
22786;SDS011;63134;52.020;4.714;2022-09-12T06:06:52;64.85;;;41.50;;
22786;SDS011;63134;52.020;4.714;2022-09-12T06:09:38;64.25;;;41.38;;
22786;SDS011;63134;52.020;4.714;2022-09-12T06:12:24;68.95;;;40.53;;
22786;SDS011;63134;52.020;4.714;2022-09-12T06:15:12;58.60;;;39.13;;
22786;SDS011;63134;52.020;4.714;2022-09-12T06:18:00;65.57;;;40.80;;
22786;SDS011;63134;52.020;4.714;2022-09-12T06:20:45;61.95;;;39.08;;
22786;SDS011;63134;52.020;4.714;2022-09-12T06:23:34;57.35;;;38.60;;
22786;SDS011;63134;52.020;4.714;2022-09-12T06:26:20;57.75;;;37.20;;
22786;SDS011;63134;52.020;4.714;2022-09-12T06:29:09;63.67;;;37.97;;
22786;SDS011;63134;52.020;4.714;2022-09-12T06:31:55;49.85;;;36.03;;
22786;SDS011;63134;52.020;4.714;2022-09-12T06:34:41;51.58;;;35.97;;
22786;SDS011;63134;52.020;4.714;2022-09-12T06:37:27;54.05;;;35.25;;
22786;SDS011;63134;52.020;4.714;2022-09-12T06:40:12;52.22;;;34.15;;
22786;SDS011;63134;52.020;4.714;2022-09-12T06:42:58;52.67;;;34.30;;
22786;SDS011;63134;52.020;4.714;2022-09-12T06:45:49;48.70;;;33.60;;
22786;SDS011;63134;52.020;4.714;2022-09-12T06:48:35;50.78;;;33.40;;
22786;SDS011;63134;52.020;4.714;2022-09-12T06:51:25;45.58;;;33.55;;
22786;SDS011;63134;52.020;4.714;2022-09-12T06:54:12;41.80;;;31.55;;
22786;SDS011;63134;52.020;4.714;2022-09-12T06:56:59;43.20;;;33.53;;
22786;SDS011;63134;52.020;4.714;2022-09-12T06:59:45;50.50;;;34.20;;
22786;SDS011;63134;52.020;4.714;2022-09-12T07:02:30;48.72;;;33.85;;
22786;SDS011;63134;52.020;4.714;2022-09-12T07:05:16;52.70;;;33.80;;
22786;SDS011;63134;52.020;4.714;2022-09-12T07:08:01;45.88;;;32.83;;
22786;SDS011;63134;52.020;4.714;2022-09-12T07:10:47;47.55;;;33.92;;
22786;SDS011;63134;52.020;4.714;2022-09-12T07:13:33;49.35;;;32.67;;
22786;SDS011;63134;52.020;4.714;2022-09-12T07:16:18;44.15;;;32.35;;
22786;SDS011;63134;52.020;4.714;2022-09-12T07:19:05;53.85;;;33.25;;
22786;SDS011;63134;52.020;4.714;2022-09-12T07:21:52;47.60;;;32.80;;
22786;SDS011;63134;52.020;4.714;2022-09-12T07:24:42;48.15;;;34.47;;
22786;SDS011;63134;52.020;4.714;2022-09-12T07:27:29;43.17;;;33.28;;
22786;SDS011;63134;52.020;4.714;2022-09-12T07:30:15;50.00;;;33.00;;
22786;SDS011;63134;52.020;4.714;2022-09-12T07:33:01;39.00;;;31.70;;
22786;SDS011;63134;52.020;4.714;2022-09-12T07:35:46;43.28;;;31.13;;
22786;SDS011;63134;52.020;4.714;2022-09-12T07:38:37;40.70;;;30.17;;
22786;SDS011;63134;52.020;4.714;2022-09-12T07:41:24;39.58;;;31.77;;
22786;SDS011;63134;52.020;4.714;2022-09-12T07:44:11;38.20;;;29.85;;
22786;SDS011;63134;52.020;4.714;2022-09-12T07:46:57;40.28;;;31.67;;
22786;SDS011;63134;52.020;4.714;2022-09-12T07:49:42;45.40;;;30.55;;
22786;SDS011;63134;52.020;4.714;2022-09-12T07:52:28;38.92;;;30.10;;
22786;SDS011;63134;52.020;4.714;2022-09-12T07:55:13;38.97;;;29.08;;
22786;SDS011;63134;52.020;4.714;2022-09-12T07:57:59;44.90;;;30.27;;
22786;SDS011;63134;52.020;4.714;2022-09-12T08:00:47;40.13;;;28.98;;
22786;SDS011;63134;52.020;4.714;2022-09-12T08:03:36;45.42;;;30.20;;
22786;SDS011;63134;52.020;4.714;2022-09-12T08:06:21;46.78;;;29.75;;
22786;SDS011;63134;52.020;4.714;2022-09-12T08:09:08;38.60;;;29.50;;
22786;SDS011;63134;52.020;4.714;2022-09-12T08:11:56;35.28;;;29.27;;
22786;SDS011;63134;52.020;4.714;2022-09-12T08:14:41;39.72;;;29.08;;
22786;SDS011;63134;52.020;4.714;2022-09-12T08:17:30;38.05;;;30.15;;
22786;SDS011;63134;52.020;4.714;2022-09-12T08:20:15;39.50;;;29.52;;
22786;SDS011;63134;52.020;4.714;2022-09-12T08:23:01;36.50;;;29.63;;
22786;SDS011;63134;52.020;4.714;2022-09-12T08:25:47;39.05;;;29.67;;
22786;SDS011;63134;52.020;4.714;2022-09-12T08:28:34;36.08;;;28.23;;
22786;SDS011;63134;52.020;4.714;2022-09-12T08:31:20;36.50;;;26.77;;
22786;SDS011;63134;52.020;4.714;2022-09-12T08:34:08;33.35;;;27.13;;
22786;SDS011;63134;52.020;4.714;2022-09-12T08:36:53;32.35;;;26.13;;
22786;SDS011;63134;52.020;4.714;2022-09-12T08:39:39;34.30;;;24.77;;
22786;SDS011;63134;52.020;4.714;2022-09-12T08:42:28;35.35;;;25.25;;
22786;SDS011;63134;52.020;4.714;2022-09-12T08:45:48;36.53;;;24.70;;
22786;SDS011;63134;52.020;4.714;2022-09-12T08:48:44;30.38;;;22.15;;
22786;SDS011;63134;52.020;4.714;2022-09-12T08:51:33;29.02;;;22.40;;
22786;SDS011;63134;52.020;4.714;2022-09-12T08:54:24;23.92;;;20.15;;
22786;SDS011;63134;52.020;4.714;2022-09-12T08:57:13;23.73;;;19.58;;
22786;SDS011;63134;52.020;4.714;2022-09-12T08:59:59;24.77;;;18.75;;
22786;SDS011;63134;52.020;4.714;2022-09-12T09:02:56;26.63;;;20.08;;
22786;SDS011;63134;52.020;4.714;2022-09-12T09:06:17;25.48;;;19.98;;
22786;SDS011;63134;52.020;4.714;2022-09-12T09:15:32;23.35;;;17.98;;
22786;SDS011;63134;52.020;4.714;2022-09-12T09:18:42;27.63;;;17.17;;
22786;SDS011;63134;52.020;4.714;2022-09-12T09:21:36;17.40;;;13.98;;
22786;SDS011;63134;52.020;4.714;2022-09-12T09:24:33;17.52;;;13.68;;
22786;SDS011;63134;52.020;4.714;2022-09-12T09:27:35;15.05;;;12.70;;
22786;SDS011;63134;52.020;4.714;2022-09-12T09:30:27;14.82;;;10.23;;
22786;SDS011;63134;52.020;4.714;2022-09-12T09:33:56;14.50;;;9.70;;
22786;SDS011;63134;52.020;4.714;2022-09-12T09:36:32;16.30;;;10.23;;
22786;SDS011;63134;52.020;4.714;2022-09-12T09:42:31;13.95;;;9.68;;
22786;SDS011;63134;52.020;4.714;2022-09-12T09:45:33;11.65;;;10.18;;
22786;SDS011;63134;52.020;4.714;2022-09-12T09:48:22;18.50;;;10.60;;
22786;SDS011;63134;52.020;4.714;2022-09-12T09:51:21;15.77;;;10.18;;
22786;SDS011;63134;52.020;4.714;2022-09-12T09:54:14;18.05;;;10.88;;
22786;SDS011;63134;52.020;4.714;2022-09-12T10:00:40;13.68;;;10.88;;
22786;SDS011;63134;52.020;4.714;2022-09-12T10:03:29;14.68;;;10.93;;
22786;SDS011;63134;52.020;4.714;2022-09-12T10:06:29;11.25;;;8.95;;
22786;SDS011;63134;52.020;4.714;2022-09-12T10:12:25;15.63;;;9.85;;
22786;SDS011;63134;52.020;4.714;2022-09-12T10:18:04;10.93;;;6.93;;
22786;SDS011;63134;52.020;4.714;2022-09-12T10:20:50;8.63;;;7.53;;
22786;SDS011;63134;52.020;4.714;2022-09-12T10:23:36;9.80;;;8.00;;
22786;SDS011;63134;52.020;4.714;2022-09-12T10:26:24;17.85;;;9.85;;
22786;SDS011;63134;52.020;4.714;2022-09-12T10:29:13;12.15;;;9.30;;
22786;SDS011;63134;52.020;4.714;2022-09-12T10:32:06;15.53;;;8.50;;
22786;SDS011;63134;52.020;4.714;2022-09-12T10:34:53;9.07;;;7.03;;
22786;SDS011;63134;52.020;4.714;2022-09-12T10:37:50;13.50;;;8.27;;
22786;SDS011;63134;52.020;4.714;2022-09-12T10:40:41;7.47;;;6.70;;
22786;SDS011;63134;52.020;4.714;2022-09-12T10:55:10;10.45;;;6.07;;
22786;SDS011;63134;52.020;4.714;2022-09-12T11:01:03;9.00;;;6.75;;
22786;SDS011;63134;52.020;4.714;2022-09-12T11:07:32;7.20;;;5.95;;
22786;SDS011;63134;52.020;4.714;2022-09-12T11:22:06;8.90;;;7.32;;
22786;SDS011;63134;52.020;4.714;2022-09-12T11:25:18;7.93;;;6.40;;
22786;SDS011;63134;52.020;4.714;2022-09-12T11:28:16;8.88;;;6.88;;
22786;SDS011;63134;52.020;4.714;2022-09-12T11:31:24;10.43;;;7.07;;
22786;SDS011;63134;52.020;4.714;2022-09-12T11:34:38;13.05;;;6.78;;
22786;SDS011;63134;52.020;4.714;2022-09-12T11:43:49;7.40;;;5.00;;
22786;SDS011;63134;52.020;4.714;2022-09-12T11:46:45;9.15;;;5.28;;
22786;SDS011;63134;52.020;4.714;2022-09-12T11:49:36;8.10;;;6.15;;
22786;SDS011;63134;52.020;4.714;2022-09-12T11:52:28;7.13;;;5.60;;
22786;SDS011;63134;52.020;4.714;2022-09-12T11:55:21;6.00;;;4.78;;
22786;SDS011;63134;52.020;4.714;2022-09-12T11:58:11;9.23;;;5.25;;
22786;SDS011;63134;52.020;4.714;2022-09-12T12:01:10;9.85;;;5.15;;
22786;SDS011;63134;52.020;4.714;2022-09-12T12:04:23;8.68;;;4.85;;
22786;SDS011;63134;52.020;4.714;2022-09-12T12:07:16;7.67;;;4.60;;
22786;SDS011;63134;52.020;4.714;2022-09-12T12:10:02;7.20;;;4.20;;
22786;SDS011;63134;52.020;4.714;2022-09-12T12:12:49;6.30;;;3.42;;
22786;SDS011;63134;52.020;4.714;2022-09-12T12:15:36;6.32;;;4.57;;
22786;SDS011;63134;52.020;4.714;2022-09-12T12:18:23;8.05;;;4.78;;
22786;SDS011;63134;52.020;4.714;2022-09-12T12:24:21;6.15;;;4.40;;
22786;SDS011;63134;52.020;4.714;2022-09-12T12:36:30;6.45;;;3.35;;
22786;SDS011;63134;52.020;4.714;2022-09-12T12:42:56;6.03;;;4.20;;
22786;SDS011;63134;52.020;4.714;2022-09-12T12:48:14;4.93;;;4.32;;
22786;SDS011;63134;52.020;4.714;2022-09-12T12:54:25;3.67;;;3.22;;
22786;SDS011;63134;52.020;4.714;2022-09-12T12:57:18;5.00;;;3.72;;
22786;SDS011;63134;52.020;4.714;2022-09-12T13:00:36;6.90;;;3.07;;
22786;SDS011;63134;52.020;4.714;2022-09-12T13:03:26;6.93;;;3.53;;
22786;SDS011;63134;52.020;4.714;2022-09-12T13:18:24;3.88;;;2.75;;
22786;SDS011;63134;52.020;4.714;2022-09-12T13:21:16;6.18;;;2.45;;
22786;SDS011;63134;52.020;4.714;2022-09-12T13:24:12;6.80;;;2.70;;
22786;SDS011;63134;52.020;4.714;2022-09-12T13:27:00;6.93;;;3.10;;
22786;SDS011;63134;52.020;4.714;2022-09-12T13:29:46;4.82;;;2.83;;
22786;SDS011;63134;52.020;4.714;2022-09-12T13:32:32;6.43;;;2.45;;
22786;SDS011;63134;52.020;4.714;2022-09-12T13:38:32;4.57;;;2.00;;
22786;SDS011;63134;52.020;4.714;2022-09-12T13:48:09;3.95;;;2.55;;
22786;SDS011;63134;52.020;4.714;2022-09-12T13:51:00;4.53;;;2.30;;
22786;SDS011;63134;52.020;4.714;2022-09-12T13:53:47;4.45;;;2.10;;
22786;SDS011;63134;52.020;4.714;2022-09-12T13:56:34;4.38;;;2.22;;
22786;SDS011;63134;52.020;4.714;2022-09-12T13:59:38;4.32;;;2.40;;
22786;SDS011;63134;52.020;4.714;2022-09-12T14:02:25;3.80;;;2.33;;
22786;SDS011;63134;52.020;4.714;2022-09-12T14:05:16;4.63;;;1.95;;
22786;SDS011;63134;52.020;4.714;2022-09-12T14:08:05;2.53;;;2.33;;
22786;SDS011;63134;52.020;4.714;2022-09-12T14:10:53;3.58;;;2.20;;
22786;SDS011;63134;52.020;4.714;2022-09-12T14:13:38;3.55;;;1.75;;
22786;SDS011;63134;52.020;4.714;2022-09-12T14:16:24;2.83;;;1.95;;
22786;SDS011;63134;52.020;4.714;2022-09-12T14:19:12;4.25;;;1.67;;
22786;SDS011;63134;52.020;4.714;2022-09-12T14:22:00;3.35;;;1.52;;
22786;SDS011;63134;52.020;4.714;2022-09-12T14:24:46;3.22;;;1.88;;
22786;SDS011;63134;52.020;4.714;2022-09-12T14:27:43;5.57;;;1.80;;
22786;SDS011;63134;52.020;4.714;2022-09-12T14:30:35;2.13;;;1.83;;
22786;SDS011;63134;52.020;4.714;2022-09-12T14:33:20;7.13;;;2.38;;
22786;SDS011;63134;52.020;4.714;2022-09-12T14:36:17;3.28;;;1.67;;
22786;SDS011;63134;52.020;4.714;2022-09-12T14:42:11;2.47;;;1.50;;
22786;SDS011;63134;52.020;4.714;2022-09-12T14:45:00;4.43;;;1.60;;
22786;SDS011;63134;52.020;4.714;2022-09-12T14:47:48;4.15;;;1.80;;
22786;SDS011;63134;52.020;4.714;2022-09-12T14:50:34;3.00;;;1.90;;
22786;SDS011;63134;52.020;4.714;2022-09-12T14:53:22;7.22;;;1.98;;
22786;SDS011;63134;52.020;4.714;2022-09-12T14:56:14;4.05;;;2.10;;
22786;SDS011;63134;52.020;4.714;2022-09-12T14:59:22;3.45;;;1.73;;
22786;SDS011;63134;52.020;4.714;2022-09-12T15:07:53;2.60;;;1.73;;
22786;SDS011;63134;52.020;4.714;2022-09-12T15:10:39;4.43;;;2.20;;
22786;SDS011;63134;52.020;4.714;2022-09-12T15:13:25;6.97;;;1.77;;
22786;SDS011;63134;52.020;4.714;2022-09-12T15:16:12;3.90;;;1.90;;
22786;SDS011;63134;52.020;4.714;2022-09-12T15:18:58;3.13;;;2.05;;
22786;SDS011;63134;52.020;4.714;2022-09-12T15:21:43;2.65;;;1.83;;
22786;SDS011;63134;52.020;4.714;2022-09-12T15:24:29;4.70;;;2.03;;
22786;SDS011;63134;52.020;4.714;2022-09-12T15:27:14;5.38;;;1.83;;
22786;SDS011;63134;52.020;4.714;2022-09-12T15:29:59;3.80;;;1.85;;
22786;SDS011;63134;52.020;4.714;2022-09-12T15:32:45;4.28;;;1.63;;
22786;SDS011;63134;52.020;4.714;2022-09-12T15:35:31;3.30;;;2.30;;
22786;SDS011;63134;52.020;4.714;2022-09-12T15:38:17;3.45;;;2.10;;
22786;SDS011;63134;52.020;4.714;2022-09-12T15:41:10;2.78;;;2.33;;
22786;SDS011;63134;52.020;4.714;2022-09-12T15:44:05;4.65;;;2.58;;
22786;SDS011;63134;52.020;4.714;2022-09-12T15:46:52;4.10;;;2.10;;
22786;SDS011;63134;52.020;4.714;2022-09-12T15:49:38;5.50;;;2.50;;
22786;SDS011;63134;52.020;4.714;2022-09-12T15:52:24;3.78;;;2.05;;
22786;SDS011;63134;52.020;4.714;2022-09-12T15:55:17;3.15;;;2.20;;
22786;SDS011;63134;52.020;4.714;2022-09-12T15:58:04;4.03;;;2.03;;
22786;SDS011;63134;52.020;4.714;2022-09-12T16:00:51;5.38;;;2.42;;
22786;SDS011;63134;52.020;4.714;2022-09-12T16:03:36;4.32;;;2.40;;
22786;SDS011;63134;52.020;4.714;2022-09-12T16:06:22;3.70;;;2.03;;
22786;SDS011;63134;52.020;4.714;2022-09-12T16:09:08;3.88;;;2.30;;
22786;SDS011;63134;52.020;4.714;2022-09-12T16:12:00;3.22;;;2.45;;
22786;SDS011;63134;52.020;4.714;2022-09-12T16:14:45;5.88;;;2.78;;
22786;SDS011;63134;52.020;4.714;2022-09-12T16:17:31;6.75;;;2.90;;
22786;SDS011;63134;52.020;4.714;2022-09-12T16:20:17;6.75;;;3.10;;
22786;SDS011;63134;52.020;4.714;2022-09-12T16:23:03;6.80;;;2.90;;
22786;SDS011;63134;52.020;4.714;2022-09-12T16:25:56;7.05;;;2.70;;
22786;SDS011;63134;52.020;4.714;2022-09-12T16:28:42;6.18;;;2.50;;
22786;SDS011;63134;52.020;4.714;2022-09-12T16:31:27;5.90;;;3.60;;
22786;SDS011;63134;52.020;4.714;2022-09-12T16:34:17;8.82;;;2.75;;
22786;SDS011;63134;52.020;4.714;2022-09-12T16:37:03;7.18;;;2.70;;
22786;SDS011;63134;52.020;4.714;2022-09-12T16:39:49;3.53;;;2.40;;
22786;SDS011;63134;52.020;4.714;2022-09-12T16:42:36;5.68;;;2.47;;
22786;SDS011;63134;52.020;4.714;2022-09-12T16:45:27;10.85;;;2.58;;
22786;SDS011;63134;52.020;4.714;2022-09-12T16:48:13;6.05;;;2.60;;
22786;SDS011;63134;52.020;4.714;2022-09-12T16:50:59;3.17;;;2.35;;
22786;SDS011;63134;52.020;4.714;2022-09-12T16:53:47;7.88;;;3.00;;
22786;SDS011;63134;52.020;4.714;2022-09-12T16:56:33;4.07;;;2.80;;
22786;SDS011;63134;52.020;4.714;2022-09-12T17:01:36;5.03;;;3.28;;
22786;SDS011;63134;52.020;4.714;2022-09-12T17:07:52;6.28;;;3.70;;
22786;SDS011;63134;52.020;4.714;2022-09-12T17:10:39;5.05;;;3.72;;
22786;SDS011;63134;52.020;4.714;2022-09-12T17:13:25;8.23;;;3.58;;
22786;SDS011;63134;52.020;4.714;2022-09-12T17:16:31;6.47;;;4.05;;
22786;SDS011;63134;52.020;4.714;2022-09-12T17:19:23;5.68;;;3.83;;
22786;SDS011;63134;52.020;4.714;2022-09-12T17:22:10;8.77;;;3.85;;
22786;SDS011;63134;52.020;4.714;2022-09-12T17:24:55;7.05;;;3.90;;
22786;SDS011;63134;52.020;4.714;2022-09-12T17:27:41;8.25;;;4.30;;
22786;SDS011;63134;52.020;4.714;2022-09-12T17:30:26;7.50;;;3.63;;
22786;SDS011;63134;52.020;4.714;2022-09-12T17:33:12;6.35;;;3.40;;
22786;SDS011;63134;52.020;4.714;2022-09-12T17:36:02;10.00;;;4.40;;
22786;SDS011;63134;52.020;4.714;2022-09-12T17:38:48;8.00;;;4.18;;
22786;SDS011;63134;52.020;4.714;2022-09-12T17:41:35;7.80;;;3.72;;
22786;SDS011;63134;52.020;4.714;2022-09-12T17:44:21;5.53;;;3.50;;
22786;SDS011;63134;52.020;4.714;2022-09-12T17:47:08;7.03;;;3.38;;
22786;SDS011;63134;52.020;4.714;2022-09-12T17:49:56;13.23;;;4.03;;
22786;SDS011;63134;52.020;4.714;2022-09-12T17:53:01;9.30;;;3.05;;
22786;SDS011;63134;52.020;4.714;2022-09-12T17:55:47;6.43;;;4.38;;
22786;SDS011;63134;52.020;4.714;2022-09-12T17:58:41;11.85;;;3.97;;
22786;SDS011;63134;52.020;4.714;2022-09-12T18:01:27;10.98;;;4.28;;
22786;SDS011;63134;52.020;4.714;2022-09-12T18:04:31;9.25;;;4.43;;
22786;SDS011;63134;52.020;4.714;2022-09-12T18:07:17;9.25;;;3.83;;
22786;SDS011;63134;52.020;4.714;2022-09-12T18:10:05;7.93;;;4.30;;
22786;SDS011;63134;52.020;4.714;2022-09-12T18:12:51;9.15;;;4.47;;
22786;SDS011;63134;52.020;4.714;2022-09-12T18:15:37;8.55;;;5.03;;
22786;SDS011;63134;52.020;4.714;2022-09-12T18:18:22;10.60;;;4.65;;
22786;SDS011;63134;52.020;4.714;2022-09-12T18:21:09;8.20;;;4.40;;
22786;SDS011;63134;52.020;4.714;2022-09-12T18:23:55;7.65;;;4.28;;
22786;SDS011;63134;52.020;4.714;2022-09-12T18:26:44;6.47;;;4.13;;
22786;SDS011;63134;52.020;4.714;2022-09-12T18:29:29;5.72;;;3.40;;
22786;SDS011;63134;52.020;4.714;2022-09-12T18:32:16;6.75;;;4.07;;
22786;SDS011;63134;52.020;4.714;2022-09-12T18:35:02;6.78;;;4.10;;
22786;SDS011;63134;52.020;4.714;2022-09-12T18:37:47;10.95;;;4.82;;
22786;SDS011;63134;52.020;4.714;2022-09-12T18:40:33;8.82;;;4.72;;
22786;SDS011;63134;52.020;4.714;2022-09-12T18:43:18;7.03;;;5.00;;
22786;SDS011;63134;52.020;4.714;2022-09-12T18:46:05;11.25;;;5.35;;
22786;SDS011;63134;52.020;4.714;2022-09-12T18:48:51;10.00;;;5.20;;
22786;SDS011;63134;52.020;4.714;2022-09-12T18:51:39;10.70;;;5.10;;
22786;SDS011;63134;52.020;4.714;2022-09-12T18:54:25;6.65;;;4.35;;
22786;SDS011;63134;52.020;4.714;2022-09-12T18:57:11;7.80;;;4.82;;
22786;SDS011;63134;52.020;4.714;2022-09-12T18:59:56;14.75;;;5.40;;
22786;SDS011;63134;52.020;4.714;2022-09-12T19:02:43;6.65;;;4.82;;
22786;SDS011;63134;52.020;4.714;2022-09-12T19:05:29;8.50;;;6.78;;
22786;SDS011;63134;52.020;4.714;2022-09-12T19:08:14;14.43;;;8.35;;
22786;SDS011;63134;52.020;4.714;2022-09-12T19:10:59;9.63;;;7.53;;
22786;SDS011;63134;52.020;4.714;2022-09-12T19:13:46;10.52;;;6.43;;